world map with FAE marked

FAE - Airport

This information may not be accurate or current and is not valid for navigation or flight planning. No warranty of fitness for any purpose is made or implied.

flag of Faroe Islands

Donate via PayPal

Additional information is available on the NEW Great Circle Mapper

Location
City:  Sorvag, Faroe Islands
Near (Alt.):Sřrvágur
Name:Vágar
ICAO / IATA:EKVG / FAE

Details
Type:Airport (Aerodrome, Airfield)
Latitude:62°03'49"N (62.063628)
Longitude:7°16'38"W (-7.277218)
Elevation:280 ft (85 m)
Runways:1
Longest:4101 × 98 ft (1250 × 30 m)

Time
Timezone:UTC+0 (DST+3)
Local Time:

Weather
METAR:EKVG  041420Z AUTO 35012KT 9999NDV NCD 02/M01 Q1008

Related Locations
Nearby:
Farthest:NZTB: 11530 mi / 18556 km
Terra Nova Bay [Mario Zucchelli Station], AQ

Find:

   beyond  
but within

Other Information
Maps:
Sources:

  


 


Great Circle Mapper   Great Circle Mapper
Great Circle Mapper FAQ   Great Circle Mapper FAQ
  Karl's Home Page
KLS˛   KLS˛ Home
   GC on Facebook
Airlines of the World   Airlines of the World
Donate via PayPal


Copyright © 2004-2019, Karl L. Swartz. All rights reserved.
All trademarks mentioned herein belong to their respective owners.

Please see credits for attribution and copyright information.

Karl Swartz <karl@kls2.com>
  Powered by FreeBSD
Valid HTML 4.01!
Labeled with ICRA
hCard Microformat
Geo Microformat